createdAt,value
2023-09-18T00:02:51.905Z,4.6
2023-09-18T00:08:51.844Z,4.7
2023-09-18T00:14:52.558Z,4.7
2023-09-18T00:20:52.040Z,4.7
2023-09-18T00:26:52.080Z,4.7
2023-09-18T00:32:51.905Z,4.6
2023-09-18T00:38:52.000Z,4.7
2023-09-18T00:44:52.132Z,4.5
2023-09-18T00:50:51.798Z,4.5
2023-09-18T00:56:51.717Z,4.5
2023-09-18T01:02:52.204Z,4.4
2023-09-18T01:08:52.344Z,4.5
2023-09-18T01:14:52.231Z,4.5
2023-09-18T01:20:51.628Z,4.5
2023-09-18T01:26:51.749Z,4.5
2023-09-18T01:32:51.862Z,4.5
2023-09-18T01:38:52.150Z,4.5
2023-09-18T01:44:52.122Z,4.5
2023-09-18T01:50:52.071Z,4.6
2023-09-18T01:56:51.915Z,4.6
2023-09-18T02:02:55.623Z,4.6
2023-09-18T02:08:52.434Z,4.6
2023-09-18T02:14:51.818Z,4.7
2023-09-18T02:20:51.698Z,4.8
2023-09-18T02:26:51.680Z,4.8
2023-09-18T02:32:51.786Z,4.8
2023-09-18T02:38:52.805Z,4.7
2023-09-18T02:44:52.140Z,4.5
2023-09-18T02:50:51.866Z,4.4
2023-09-18T02:56:51.781Z,4.3
2023-09-18T03:02:52.011Z,4
2023-09-18T03:08:52.419Z,3.9
2023-09-18T03:14:52.315Z,4
2023-09-18T03:20:51.837Z,4.1
2023-09-18T03:26:52.551Z,4.1
2023-09-18T03:32:52.185Z,4
2023-09-18T03:38:51.914Z,3.8
2023-09-18T03:44:51.986Z,4
2023-09-18T03:50:52.106Z,4
2023-09-18T03:56:51.919Z,4
2023-09-18T04:02:51.906Z,4
2023-09-18T04:08:52.121Z,4.1
2023-09-18T04:14:52.295Z,4.1
2023-09-18T04:20:52.052Z,4.2
2023-09-18T04:26:52.146Z,4.1
2023-09-18T04:32:52.519Z,4.1
2023-09-18T04:38:52.832Z,4.1
2023-09-18T04:44:52.889Z,4.1
2023-09-18T04:50:52.582Z,4.1
2023-09-18T04:56:52.120Z,4.1
2023-09-18T05:02:52.645Z,4.1
2023-09-18T05:08:52.751Z,4.2
2023-09-18T05:14:52.345Z,4.2
2023-09-18T05:20:52.291Z,4.2
2023-09-18T05:26:51.891Z,4.5
2023-09-18T05:32:52.695Z,4.5
2023-09-18T05:38:52.260Z,4.4
2023-09-18T05:44:52.037Z,4.5
2023-09-18T05:50:52.478Z,4.6
2023-09-18T05:56:52.344Z,4.7
2023-09-18T06:02:52.417Z,4.8
2023-09-18T06:08:52.969Z,4.8
2023-09-18T06:14:52.794Z,4.8
2023-09-18T06:20:52.207Z,4.9
2023-09-18T06:26:53.033Z,4.9
2023-09-18T06:32:53.319Z,4.9
2023-09-18T06:38:52.242Z,5.1
2023-09-18T06:44:51.996Z,5.2
2023-09-18T06:50:52.936Z,5.3
2023-09-18T06:56:52.125Z,5.3
2023-09-18T07:02:53.084Z,5.5
2023-09-18T07:08:52.301Z,5.4
2023-09-18T07:14:52.115Z,5.5
2023-09-18T07:20:52.939Z,5.6
2023-09-18T07:26:52.640Z,5.6
2023-09-18T07:32:52.995Z,5.6
2023-09-18T07:38:52.745Z,5.7
2023-09-18T07:44:52.258Z,5.6
2023-09-18T07:50:53.092Z,5.6
2023-09-18T07:56:52.479Z,5.7
2023-09-18T08:02:55.204Z,5.7
2023-09-18T08:08:52.382Z,5.7
2023-09-18T08:14:53.072Z,5.6
2023-09-18T08:20:52.324Z,5.6
2023-09-18T08:26:52.131Z,5.6
2023-09-18T08:32:52.639Z,5.6
2023-09-18T08:38:52.839Z,5.8
2023-09-18T08:44:52.675Z,5.8
2023-09-18T08:50:51.993Z,5.8
2023-09-18T08:56:52.136Z,5.7
2023-09-18T09:02:53.160Z,5.8
2023-09-18T09:08:54.099Z,5.9
2023-09-18T09:14:52.906Z,5.9
2023-09-18T09:20:52.387Z,6
2023-09-18T09:26:51.974Z,6
2023-09-18T09:32:52.435Z,6
2023-09-18T09:38:52.942Z,6.1
2023-09-18T09:44:53.265Z,6.1
2023-09-18T09:50:52.070Z,6.1
2023-09-18T09:56:52.509Z,6.4
2023-09-18T10:02:52.464Z,6.4
2023-09-18T10:08:52.390Z,6.4
2023-09-18T10:15:01.601Z,6.4
2023-09-18T10:20:51.952Z,6.4
2023-09-18T10:26:52.222Z,6.5
2023-09-18T10:32:52.334Z,6.5
2023-09-18T10:38:52.990Z,6.7
2023-09-18T10:44:52.623Z,6.8
2023-09-18T10:50:52.444Z,7.1
2023-09-18T10:56:52.624Z,7.2
2023-09-18T11:02:53.111Z,7.3
2023-09-18T11:08:52.336Z,7.8
2023-09-18T11:14:52.197Z,7.8
2023-09-18T11:20:51.954Z,7.8
2023-09-18T11:26:51.994Z,8.1
2023-09-18T11:32:52.439Z,9.1
2023-09-18T11:38:52.368Z,8.9
2023-09-18T11:44:52.014Z,8.9
2023-09-18T11:50:52.296Z,9.8
2023-09-18T11:56:52.169Z,9.8
2023-09-18T12:02:52.782Z,9.8
2023-09-18T12:08:52.290Z,10.3
2023-09-18T12:14:52.680Z,10.6
2023-09-18T12:20:52.412Z,10.4
2023-09-18T12:26:52.473Z,10.6
2023-09-18T12:32:52.421Z,10.8
2023-09-18T12:38:52.963Z,10.9
2023-09-18T12:44:52.826Z,11.1
2023-09-18T12:50:52.569Z,11.3
2023-09-18T12:56:52.222Z,11.4
2023-09-18T13:02:52.747Z,12
2023-09-18T13:08:52.167Z,12.3
2023-09-18T13:14:52.342Z,12.5
2023-09-18T13:20:52.154Z,13
2023-09-18T13:26:52.194Z,13.4
2023-09-18T13:32:52.310Z,13.4
2023-09-18T13:38:52.759Z,13.5
2023-09-18T13:44:53.157Z,13.7
2023-09-18T13:50:53.330Z,13.5
2023-09-18T13:56:54.942Z,13.7
2023-09-18T14:02:52.270Z,14.1
2023-09-18T14:08:52.601Z,13.6
2023-09-18T14:14:52.652Z,14.1
2023-09-18T14:20:52.166Z,14.3
2023-09-18T14:26:52.521Z,14.5
2023-09-18T14:32:52.874Z,14.3
2023-09-18T14:38:52.591Z,14.8
2023-09-18T14:44:53.076Z,15.4
2023-09-18T14:50:52.946Z,15.2
2023-09-18T14:56:53.423Z,15.5
2023-09-18T15:02:52.681Z,15.6
2023-09-18T15:08:52.576Z,16.7
2023-09-18T15:14:52.696Z,16.5
2023-09-18T15:20:52.631Z,17.3
2023-09-18T15:26:52.333Z,17
2023-09-18T15:32:53.052Z,17.1
2023-09-18T15:38:52.695Z,17.6
2023-09-18T15:44:53.960Z,17.9
2023-09-18T15:50:52.766Z,17.7
2023-09-18T15:56:52.200Z,17.4
2023-09-18T16:02:53.125Z,18.4
2023-09-18T16:08:52.423Z,17.6
2023-09-18T16:14:52.739Z,15.6
2023-09-18T16:20:52.729Z,15
2023-09-18T16:26:52.239Z,15.2
2023-09-18T16:32:52.609Z,15.6
2023-09-18T16:38:52.185Z,14.7
2023-09-18T16:44:53.820Z,14.4
2023-09-18T16:50:52.986Z,14.3
2023-09-18T16:56:52.699Z,13.4
2023-09-18T17:02:52.478Z,13
2023-09-18T17:08:52.740Z,12.8
2023-09-18T17:14:52.885Z,12.4
2023-09-18T17:20:52.851Z,12
2023-09-18T17:26:57.925Z,11.9
2023-09-18T17:32:53.340Z,11.8
2023-09-18T17:38:52.835Z,11.7
2023-09-18T17:44:52.518Z,11.5
2023-09-18T17:50:52.582Z,11.4
2023-09-18T17:56:52.664Z,11.3
2023-09-18T18:02:53.248Z,11.3
2023-09-18T18:08:52.430Z,11.2
2023-09-18T18:14:52.875Z,11.1
2023-09-18T18:20:53.094Z,11
2023-09-18T18:26:52.552Z,11
2023-09-18T18:32:53.117Z,11
2023-09-18T18:38:52.908Z,7
2023-09-18T18:56:52.803Z,5.2
2023-09-18T19:02:52.926Z,5
2023-09-18T19:08:52.977Z,4.9
2023-09-18T19:14:52.570Z,5
2023-09-18T19:20:52.612Z,4.8
2023-09-18T19:26:52.284Z,4.9
2023-09-18T19:32:52.365Z,4.7
2023-09-18T19:44:52.857Z,4.4
2023-09-18T19:50:52.794Z,4.5
2023-09-18T19:56:52.531Z,4.6
2023-09-18T20:02:52.425Z,4.6
2023-09-18T20:08:52.332Z,4.7
2023-09-18T20:14:52.728Z,4.6
2023-09-18T20:20:52.326Z,4.6
2023-09-18T20:32:52.435Z,4.6
2023-09-18T20:44:52.384Z,4.4
2023-09-18T20:50:52.761Z,4.3
2023-09-18T21:02:54.401Z,4.4
2023-09-18T21:08:53.318Z,4.3
2023-09-18T21:14:53.252Z,4.1
2023-09-18T21:20:54.044Z,4
2023-09-18T21:26:53.962Z,4
2023-09-18T21:38:52.292Z,4.3
2023-09-18T21:44:52.720Z,4.3
2023-09-18T21:50:52.448Z,4.4
2023-09-18T22:02:52.781Z,4.4
2023-09-18T22:08:52.918Z,4.6
2023-09-18T22:14:53.496Z,4.5
2023-09-18T22:20:52.895Z,4.5
2023-09-18T22:32:52.531Z,4.4
2023-09-18T22:38:52.744Z,4.6
2023-09-18T22:44:52.562Z,4.5
2023-09-18T22:50:52.473Z,4.5
2023-09-18T23:02:52.548Z,5.1
2023-09-18T23:14:52.683Z,5.6
2023-09-18T23:20:53.157Z,5.6
2023-09-18T23:26:52.429Z,5.5
2023-09-18T23:32:52.563Z,5.7
2023-09-18T23:38:52.476Z,5.7
2023-09-18T23:50:52.944Z,5.6
